Time;durP1;ratioP1;P1;durP2;ratioP2;P2;SDS_P1;SDS_P2;PMS_P1;PMS_P2;Temp;Humidity;BMP_temperature;BMP_pressure;BME280_temperature;BME280_humidity;BME280_pressure;Samples;Min_cycle;Max_cycle;Signal;HPM_P1;HPM_P2
2022/09/30 00:01:07;;;;;;;22.17;15.52;;;;;;;7.05;100.00;100689.28;5034244;28;20065;-53
2022/09/30 00:03:32;;;;;;;19.23;15.25;;;;;;;6.98;100.00;100694.50;5034117;28;20475;-55
2022/09/30 00:05:59;;;;;;;21.23;14.45;;;;;;;7.02;100.00;100695.34;5034230;28;20041;-54
2022/09/30 00:08:24;;;;;;;20.80;13.85;;;;;;;7.03;100.00;100701.44;5034084;28;20041;-54
2022/09/30 00:11:04;;;;;;;16.48;12.73;;;;;;;7.03;100.00;100707.50;5034227;28;20499;-54
2022/09/30 00:13:30;;;;;;;16.63;13.65;;;;;;;7.01;100.00;100713.56;5033763;28;20037;-55
2022/09/30 00:15:56;;;;;;;17.50;13.20;;;;;;;7.01;100.00;100716.16;5033747;28;20041;-52
2022/09/30 00:18:21;;;;;;;17.23;13.45;;;;;;;6.97;100.00;100712.69;5033765;28;20037;-52
2022/09/30 00:20:47;;;;;;;17.30;13.10;;;;;;;6.97;100.00;100713.56;5033743;28;20030;-53
2022/09/30 00:23:12;;;;;;;20.88;12.95;;;;;;;6.95;100.00;100715.28;5034018;28;20076;-54
2022/09/30 00:25:37;;;;;;;16.40;12.55;;;;;;;6.93;100.00;100716.16;5033922;28;20412;-52
2022/09/30 00:28:02;;;;;;;17.00;12.75;;;;;;;6.75;100.00;100698.88;5033702;28;20117;-55
2022/09/30 00:30:28;;;;;;;17.05;12.93;;;;;;;6.85;100.00;100710.97;5033752;28;20485;-54
2022/09/30 00:32:53;;;;;;;18.42;12.93;;;;;;;6.82;100.00;100712.72;5033137;28;20137;-56
2022/09/30 00:35:21;;;;;;;16.23;12.50;;;;;;;6.80;100.00;100707.50;5033461;28;20072;-55
2022/09/30 00:37:46;;;;;;;16.98;12.65;;;;;;;6.80;100.00;100714.44;5033675;28;20111;-54
2022/09/30 00:40:11;;;;;;;16.60;12.70;;;;;;;6.70;100.00;100715.31;5033625;28;20432;-54
2022/09/30 00:42:39;;;;;;;17.23;12.80;;;;;;;6.67;100.00;100712.72;5033621;28;20033;-52
2022/09/30 00:45:09;;;;;;;16.98;12.60;;;;;;;6.63;100.00;100712.72;5033081;28;20072;-54
2022/09/30 00:47:43;;;;;;;17.77;12.30;;;;;;;6.63;100.00;100706.63;5033353;28;20038;-52
2022/09/30 00:50:16;;;;;;;17.33;12.85;;;;;;;6.61;100.00;100706.63;5033380;28;20048;-53
2022/09/30 00:52:44;;;;;;;15.38;11.85;;;;;;;6.60;100.00;100707.50;5033446;28;20041;-54
2022/09/30 00:55:42;;;;;;;15.73;11.02;;;;;;;6.61;100.00;100714.44;5032495;28;20053;-55
2022/09/30 00:58:14;;;;;;;15.48;11.48;;;;;;;6.59;100.00;100710.97;5022261;28;20053;-53
2022/09/30 01:00:39;;;;;;;17.67;11.82;;;;;;;6.61;100.00;100714.44;5032970;28;20037;-53
2022/09/30 01:03:06;;;;;;;16.65;12.07;;;;;;;6.60;100.00;100715.31;5033182;28;20037;-54
2022/09/30 01:05:33;;;;;;;16.70;11.82;;;;;;;6.56;100.00;100712.72;5033043;28;20060;-53
2022/09/30 01:08:02;;;;;;;16.90;11.63;;;;;;;6.55;100.00;100713.59;5032769;28;20037;-54
2022/09/30 01:10:28;;;;;;;17.70;11.80;;;;;;;6.56;100.00;100711.00;5032808;28;20095;-55
2022/09/30 01:12:53;;;;;;;15.27;11.30;;;;;;;6.55;100.00;100713.59;5032968;28;20049;-54
2022/09/30 01:15:26;;;;;;;16.42;11.82;;;;;;;6.50;100.00;100712.69;5032819;28;20453;-54
2022/09/30 01:18:05;;;;;;;14.88;10.93;;;;;;;6.50;100.00;100710.09;5032925;28;20045;-55
2022/09/30 01:21:08;;;;;;;17.33;11.25;;;;;;;6.49;100.00;100709.25;5032414;28;20033;-49
2022/09/30 01:23:56;;;;;;;13.82;10.90;;;;;;;6.45;100.00;100710.09;5032690;28;20163;-49
2022/09/30 01:26:48;;;;;;;16.00;11.18;;;;;;;6.45;100.00;100714.41;5031973;28;20040;-52
2022/09/30 01:29:40;;;;;;;14.45;10.80;;;;;;;6.46;100.00;100716.16;5032503;28;20037;-51
2022/09/30 01:33:02;;;;;;;13.07;11.00;;;;;;;6.42;100.00;100712.69;5032601;28;20037;-50
2022/09/30 01:35:42;;;;;;;15.77;11.00;;;;;;;6.37;100.00;100708.38;5030107;28;20395;-56
2022/09/30 01:38:29;;;;;;;13.23;10.45;;;;;;;6.36;100.00;100710.09;5014928;28;20042;-50
2022/09/30 01:41:27;;;;;;;15.35;11.00;;;;;;;6.30;100.00;100712.66;5032522;28;20103;-49
2022/09/30 01:44:09;;;;;;;14.70;11.45;;;;;;;6.31;100.00;100719.59;5032169;28;20063;-53
2022/09/30 01:46:43;;;;;;;14.45;10.70;;;;;;;6.28;100.00;100725.66;5032202;28;20041;-52
2022/09/30 01:49:24;;;;;;;16.42;10.48;;;;;;;6.27;100.00;100715.25;5032113;28;20456;-58
2022/09/30 01:52:27;;;;;;;14.82;11.00;;;;;;;6.28;100.00;100717.00;5031868;28;20088;-51
2022/09/30 01:55:02;;;;;;;14.68;10.88;;;;;;;6.24;100.00;100717.84;5031971;28;20140;-51
2022/09/30 01:57:34;;;;;;;16.92;10.43;;;;;;;6.21;100.00;100723.06;5032159;28;20037;-53
2022/09/30 02:00:07;;;;;;;15.20;11.27;;;;;;;6.18;100.00;100718.72;5031568;28;20625;-49
2022/09/30 02:02:36;;;;;;;15.95;10.98;;;;;;;6.19;100.00;100722.19;5031983;28;20033;-52
2022/09/30 02:05:09;;;;;;;15.95;11.02;;;;;;;6.20;100.00;100724.78;5031780;28;20052;-49
2022/09/30 02:07:53;;;;;;;15.52;10.90;;;;;;;6.12;100.00;100723.88;5031802;28;20519;-51
2022/09/30 02:10:24;;;;;;;15.07;11.90;;;;;;;6.09;100.00;100715.22;5031968;28;20033;-52
2022/09/30 02:12:56;;;;;;;16.67;11.13;;;;;;;6.10;100.00;100728.22;5031707;28;20059;-51
2022/09/30 02:15:27;;;;;;;15.50;11.27;;;;;;;6.10;100.00;100717.81;5031846;28;20033;-53
2022/09/30 02:17:58;;;;;;;15.00;10.48;;;;;;;6.09;100.00;100723.88;5031743;28;20069;-53
2022/09/30 02:20:28;;;;;;;18.95;11.35;;;;;;;6.11;100.00;100721.28;5031953;28;20045;-55
2022/09/30 02:23:09;;;;;;;12.65;10.85;;;;;;;6.11;100.00;100727.34;5031736;28;20087;-53
2022/09/30 02:25:43;;;;;;;16.52;11.18;;;;;;;6.09;100.00;100726.47;5031709;28;20127;-55
2022/09/30 02:28:15;;;;;;;14.13;11.50;;;;;;;6.07;100.00;100733.38;5031485;28;20045;-55
2022/09/30 02:30:46;;;;;;;19.05;11.40;;;;;;;6.05;100.00;100731.69;5031713;28;20037;-52
2022/09/30 02:33:19;;;;;;;14.20;11.27;;;;;;;6.07;100.00;100737.72;5031624;28;20041;-52
2022/09/30 02:35:57;;;;;;;14.82;11.55;;;;;;;6.04;100.00;100737.72;5031666;28;20068;-53
2022/09/30 02:38:30;;;;;;;15.40;11.38;;;;;;;5.96;100.00;100727.31;5031506;28;20033;-54
2022/09/30 02:41:01;;;;;;;15.43;11.88;;;;;;;5.88;100.00;100735.09;5031528;28;20092;-54
2022/09/30 02:43:29;;;;;;;17.73;13.35;;;;;;;5.91;100.00;100727.28;5031077;28;20470;-53
2022/09/30 02:46:12;;;;;;;17.08;12.15;;;;;;;5.90;100.00;100722.94;5031386;28;20395;-53
2022/09/30 02:48:59;;;;;;;16.73;12.70;;;;;;;5.94;100.00;100718.63;5031292;28;20037;-54
2022/09/30 02:51:36;;;;;;;15.15;11.98;;;;;;;5.88;100.00;100716.91;5031336;28;20072;-54
2022/09/30 02:54:19;;;;;;;15.52;12.15;;;;;;;5.89;100.00;100735.91;5030734;28;20096;-53
2022/09/30 02:56:56;;;;;;;16.10;12.25;;;;;;;5.84;100.00;100729.84;5031247;28;20348;-51
2022/09/30 02:59:23;;;;;;;17.77;13.23;;;;;;;5.84;100.00;100727.25;5031332;28;20040;-52
2022/09/30 03:01:48;;;;;;;17.25;14.13;;;;;;;5.84;100.00;100717.72;5031374;28;20034;-53
2022/09/30 03:04:20;;;;;;;17.55;13.75;;;;;;;5.88;100.00;100723.78;5031491;28;20160;-54
2022/09/30 03:06:45;;;;;;;16.83;13.52;;;;;;;5.87;100.00;100720.34;5031122;28;20368;-53
2022/09/30 03:09:11;;;;;;;19.75;13.52;;;;;;;5.86;100.00;100734.19;5031229;28;20041;-55
2022/09/30 03:11:37;;;;;;;18.23;13.10;;;;;;;5.82;100.00;100726.34;5031330;28;20065;-54
2022/09/30 03:14:40;;;;;;;19.98;14.60;;;;;;;5.82;100.00;100727.22;5013768;28;20070;-53
2022/09/30 03:17:25;;;;;;;20.27;14.70;;;;;;;5.79;100.00;100735.00;5031163;28;20452;-53
2022/09/30 03:20:06;;;;;;;19.50;13.88;;;;;;;5.76;100.00;100729.78;5031055;28;20033;-53
2022/09/30 03:23:08;;;;;;;20.55;15.07;;;;;;;5.75;100.00;100737.56;5031230;28;20038;-53
2022/09/30 03:26:11;;;;;;;17.23;14.23;;;;;;;5.75;100.00;100732.38;5031130;28;20183;-50
2022/09/30 03:29:02;;;;;;;19.70;14.65;;;;;;;5.75;100.00;100738.44;5031023;28;20044;-52
2022/09/30 03:31:40;;;;;;;19.50;15.60;;;;;;;5.63;100.00;100728.00;5031116;28;20057;-50
2022/09/30 03:34:20;;;;;;;22.00;15.23;;;;;;;5.73;100.00;100744.47;5031118;28;20052;-50
2022/09/30 03:37:10;;;;;;;20.38;15.40;;;;;;;5.70;100.00;100737.56;5030954;28;20782;-55
2022/09/30 03:40:00;;;;;;;21.17;15.70;;;;;;;5.70;100.00;100747.09;5031162;28;20136;-54
2022/09/30 03:42:39;;;;;;;19.27;16.00;;;;;;;5.71;100.00;100735.84;5030827;28;20119;-54
2022/09/30 03:45:16;;;;;;;21.90;16.52;;;;;;;5.70;100.00;100737.56;5013343;28;20360;-54
2022/09/30 03:47:45;;;;;;;19.67;16.27;;;;;;;5.66;100.00;100740.13;5030985;28;20029;-55
2022/09/30 03:50:14;;;;;;;20.35;16.55;;;;;;;5.64;100.00;100755.69;5033600;28;20037;-53
2022/09/30 03:52:40;;;;;;;21.50;16.40;;;;;;;5.65;100.00;100754.84;5034493;28;20038;-49
2022/09/30 03:55:10;;;;;;;22.58;16.38;;;;;;;5.64;100.00;100747.03;5034164;28;20075;-54
2022/09/30 03:57:36;;;;;;;20.38;16.85;;;;;;;5.65;100.00;100757.44;5034232;28;20045;-53
2022/09/30 04:00:04;;;;;;;20.48;16.35;;;;;;;5.65;100.00;100751.38;5034353;28;20033;-52
2022/09/30 04:02:29;;;;;;;20.27;16.17;;;;;;;5.64;100.00;100760.88;5034455;28;20037;-54
2022/09/30 04:04:55;;;;;;;21.00;16.50;;;;;;;5.64;100.00;100766.09;5034404;28;20422;-53
2022/09/30 04:07:20;;;;;;;20.33;15.88;;;;;;;5.62;100.00;100773.00;5034034;28;20117;-53
2022/09/30 04:09:45;;;;;;;21.33;17.00;;;;;;;5.60;100.00;100764.31;5016373;28;20026;-54
2022/09/30 04:12:11;;;;;;;20.33;16.40;;;;;;;5.53;100.00;100768.63;5034263;28;20048;-55
2022/09/30 04:14:36;;;;;;;21.45;16.70;;;;;;;5.55;100.00;100779.00;5034105;28;20110;-53
2022/09/30 04:17:02;;;;;;;22.25;17.08;;;;;;;5.52;100.00;100792.84;5033887;28;20705;-54
2022/09/30 04:19:28;;;;;;;19.20;16.17;;;;;;;5.49;100.00;100789.34;5034016;28;20029;-51
2022/09/30 04:21:53;;;;;;;22.90;16.98;;;;;;;5.49;100.00;100795.41;5033913;28;20056;-53
2022/09/30 04:24:23;;;;;;;22.50;16.83;;;;;;;5.46;100.00;100802.31;5033895;28;20044;-54
2022/09/30 04:26:49;;;;;;;21.65;17.77;;;;;;;5.46;100.00;100807.50;5033797;28;20045;-52
2022/09/30 04:29:14;;;;;;;25.85;16.90;;;;;;;5.43;100.00;100817.84;5033848;28;20033;-53
2022/09/30 04:31:40;;;;;;;23.30;17.55;;;;;;;5.38;100.00;100822.13;5033841;28;20116;-52
2022/09/30 04:34:05;;;;;;;23.83;17.15;;;;;;;5.41;100.00;100816.97;5033885;28;20430;-55
2022/09/30 04:36:31;;;;;;;24.88;18.08;;;;;;;5.38;100.00;100817.81;5033598;28;20056;-53
2022/09/30 04:38:56;;;;;;;20.27;16.10;;;;;;;5.40;100.00;100815.22;5033549;28;20034;-53
2022/09/30 04:41:22;;;;;;;23.88;18.25;;;;;;;5.42;100.00;100808.31;5033082;28;20060;-50
2022/09/30 04:43:48;;;;;;;23.42;17.52;;;;;;;5.44;100.00;100810.09;5033518;28;20170;-51
2022/09/30 04:46:15;;;;;;;24.05;17.67;;;;;;;5.45;100.00;100810.94;5033391;28;20064;-55
2022/09/30 04:48:44;;;;;;;23.85;17.63;;;;;;;5.43;100.00;100813.53;5033335;28;20124;-53
2022/09/30 04:51:14;;;;;;;24.08;17.05;;;;;;;5.42;100.00;100818.72;5033501;28;20128;-52
2022/09/30 04:53:39;;;;;;;22.23;17.35;;;;;;;5.41;100.00;100824.75;5032965;28;20853;-51
2022/09/30 04:56:05;;;;;;;25.20;17.48;;;;;;;5.36;100.00;100818.69;5033266;28;20040;-52
2022/09/30 04:58:31;;;;;;;26.48;17.25;;;;;;;5.35;100.00;100824.72;5033263;28;20049;-54
2022/09/30 05:01:08;;;;;;;27.33;18.40;;;;;;;5.32;100.00;100828.16;5032078;28;20041;-50
2022/09/30 05:03:34;;;;;;;21.08;17.30;;;;;;;5.29;100.00;100827.25;5033149;28;20033;-54
2022/09/30 05:05:59;;;;;;;23.08;16.63;;;;;;;5.31;100.00;100828.16;5032996;28;20455;-54
2022/09/30 05:08:25;;;;;;;22.63;17.35;;;;;;;5.28;100.00;100833.31;5032732;28;20029;-52
2022/09/30 05:10:56;;;;;;;22.73;17.70;;;;;;;5.28;100.00;100830.72;5032963;28;20029;-52
2022/09/30 05:13:22;;;;;;;24.88;17.98;;;;;;;5.25;100.00;100835.03;5032921;28;20444;-53
2022/09/30 05:15:48;;;;;;;26.23;17.80;;;;;;;5.23;100.00;100834.13;5032885;28;20124;-54
2022/09/30 05:18:13;;;;;;;25.55;18.70;;;;;;;5.24;100.00;100830.69;5032781;28;20056;-55
2022/09/30 05:20:38;;;;;;;25.30;17.92;;;;;;;5.20;100.00;100833.22;5032756;28;20124;-55
2022/09/30 05:23:04;;;;;;;25.58;18.05;;;;;;;5.23;100.00;100846.22;5032815;28;20106;-55
2022/09/30 05:25:29;;;;;;;22.83;17.65;;;;;;;5.18;100.00;100848.81;5032498;28;20052;-52
2022/09/30 05:27:55;;;;;;;26.50;18.77;;;;;;;5.17;100.00;100846.22;5032551;28;20033;-53
2022/09/30 05:30:20;;;;;;;25.98;19.08;;;;;;;5.16;100.00;100845.34;5032277;28;20045;-54
2022/09/30 05:32:45;;;;;;;26.63;19.55;;;;;;;5.17;100.00;100841.03;5031915;28;20063;-56
2022/09/30 05:35:11;;;;;;;29.58;20.23;;;;;;;5.19;100.00;100836.72;5032438;28;20033;-53
2022/09/30 05:37:36;;;;;;;29.27;20.98;;;;;;;5.22;100.00;100850.56;5032504;28;20029;-50
2022/09/30 05:40:01;;;;;;;27.63;20.13;;;;;;;5.22;100.00;100855.75;5032289;28;20360;-52
2022/09/30 05:42:27;;;;;;;29.75;21.48;;;;;;;5.20;100.00;100852.25;5032401;28;20037;-52
2022/09/30 05:44:52;;;;;;;27.15;19.98;;;;;;;5.21;100.00;100868.69;5032128;28;20044;-52
2022/09/30 05:47:17;;;;;;;25.67;20.08;;;;;;;5.20;100.00;100867.81;5032159;28;20025;-53
2022/09/30 05:49:44;;;;;;;29.75;20.80;;;;;;;5.18;100.00;100866.97;5032054;28;20033;-55
2022/09/30 05:52:12;;;;;;;26.77;19.77;;;;;;;5.12;100.00;100882.47;5032187;28;20037;-57
2022/09/30 05:54:37;;;;;;;27.25;20.30;;;;;;;5.13;100.00;100886.81;5032024;28;20057;-54
2022/09/30 05:57:03;;;;;;;27.48;20.83;;;;;;;5.17;100.00;100886.00;5031913;28;20365;-55
2022/09/30 05:59:28;;;;;;;28.75;21.63;;;;;;;5.22;100.00;100886.88;5032132;28;20030;-53
2022/09/30 06:01:53;;;;;;;29.08;22.02;;;;;;;5.30;100.00;100894.75;5032096;28;20482;-50
2022/09/30 06:04:20;;;;;;;31.10;21.20;;;;;;;5.35;100.00;100895.66;5032156;28;20439;-54
2022/09/30 06:06:46;;;;;;;28.65;21.25;;;;;;;5.27;100.00;100883.47;5031345;28;20116;-54
2022/09/30 06:09:11;;;;;;;27.17;20.27;;;;;;;5.38;100.00;100906.03;5031192;28;20044;-55
2022/09/30 06:11:37;;;;;;;28.25;20.60;;;;;;;5.43;100.00;100906.94;5031394;28;20029;-54
2022/09/30 06:14:03;;;;;;;25.95;20.50;;;;;;;5.41;100.00;100905.19;5032082;28;20040;-55
2022/09/30 06:16:29;;;;;;;28.83;21.85;;;;;;;5.49;100.00;100906.16;5031863;28;20037;-52
2022/09/30 06:18:55;;;;;;;29.70;23.33;;;;;;;5.54;100.00;100901.88;5032026;28;20091;-54
2022/09/30 06:21:21;;;;;;;31.13;22.92;;;;;;;5.69;100.00;100899.38;5014190;28;20080;-56
2022/09/30 06:23:46;;;;;;;28.77;21.60;;;;;;;5.89;100.00;100902.13;5031817;28;20426;-54
2022/09/30 06:26:13;;;;;;;29.02;21.85;;;;;;;5.98;100.00;100910.00;5031741;28;20132;-55
2022/09/30 06:28:39;;;;;;;28.33;20.90;;;;;;;6.07;100.00;100910.03;5031628;28;20052;-54
2022/09/30 06:31:05;;;;;;;30.83;20.85;;;;;;;6.19;100.00;100914.44;5031378;28;20086;-54
2022/09/30 06:33:31;;;;;;;25.73;20.88;;;;;;;6.39;100.00;100923.22;5031562;28;20120;-55
2022/09/30 06:35:57;;;;;;;26.10;19.75;;;;;;;6.59;100.00;100915.50;5031549;28;20045;-55
2022/09/30 06:38:22;;;;;;;27.92;20.10;;;;;;;6.73;100.00;100924.22;5031634;28;20052;-55
2022/09/30 06:40:49;;;;;;;25.23;19.80;;;;;;;6.79;100.00;100916.44;5031242;28;20468;-54
2022/09/30 06:43:18;;;;;;;24.05;20.00;;;;;;;6.92;100.00;100909.56;5031489;28;20647;-54
2022/09/30 06:45:50;;;;;;;25.35;20.02;;;;;;;7.09;100.00;100904.38;5030999;28;20105;-55
2022/09/30 06:48:15;;;;;;;26.90;19.42;;;;;;;7.13;100.00;100895.69;5031245;28;20071;-55
2022/09/30 06:50:41;;;;;;;25.60;20.48;;;;;;;7.18;100.00;100900.03;5031038;28;20041;-54
2022/09/30 06:53:07;;;;;;;29.20;20.65;;;;;;;7.18;100.00;100910.47;5030480;28;20045;-55
2022/09/30 06:55:38;;;;;;;26.90;21.23;;;;;;;7.20;100.00;100902.66;5031522;28;20033;-54
2022/09/30 06:58:10;;;;;;;30.40;22.00;;;;;;;7.21;100.00;100905.25;5030876;28;20498;-55
2022/09/30 07:00:36;;;;;;;28.58;22.35;;;;;;;7.31;100.00;100903.53;5031628;28;20040;-55
2022/09/30 07:03:01;;;;;;;33.15;23.00;;;;;;;7.35;100.00;100907.88;5031082;28;20030;-56
2022/09/30 07:05:27;;;;;;;35.25;22.50;;;;;;;7.41;100.00;100900.06;5030880;28;20420;-54
2022/09/30 07:07:53;;;;;;;33.08;23.50;;;;;;;7.47;100.00;100909.59;5031423;28;20060;-54
2022/09/30 07:10:19;;;;;;;32.92;22.98;;;;;;;7.61;100.00;100900.09;5031334;28;20056;-56
2022/09/30 07:12:52;;;;;;;32.05;23.00;;;;;;;7.71;100.00;100908.75;5029125;28;20046;-56
2022/09/30 07:15:21;;;;;;;;;;;;;;;7.78;100.00;100908.75;5031122;28;20033;-56
2022/09/30 07:17:55;;;;;;;32.45;23.85;;;;;;;7.85;100.00;100904.38;5031566;28;19913;-57
2022/09/30 07:20:20;;;;;;;31.98;24.25;;;;;;;7.93;100.00;100905.25;5030883;28;20045;-55
2022/09/30 07:22:46;;;;;;;37.10;25.63;;;;;;;7.96;100.00;100906.13;5031318;28;20044;-56
2022/09/30 07:25:13;;;;;;;37.55;25.77;;;;;;;7.98;100.00;100901.75;5033773;28;20071;-55
2022/09/30 07:27:38;;;;;;;35.22;25.63;;;;;;;8.02;100.00;100902.63;5034886;28;20040;-55
2022/09/30 07:30:04;;;;;;;34.47;25.55;;;;;;;8.03;100.00;100901.75;5034695;28;20069;-58
2022/09/30 07:32:30;;;;;;;38.30;26.17;;;;;;;8.06;100.00;100904.34;5034462;28;20037;-55
2022/09/30 07:34:55;;;;;;;36.67;26.05;;;;;;;8.13;100.00;100911.28;5034534;28;20041;-55
2022/09/30 07:37:22;;;;;;;37.20;26.38;;;;;;;8.16;100.00;100916.47;5034439;28;20033;-56
2022/09/30 07:39:48;;;;;;;37.75;26.33;;;;;;;8.23;100.00;100920.81;5034759;28;20103;-55
2022/09/30 07:42:15;;;;;;;32.38;25.13;;;;;;;8.29;100.00;100922.53;5034289;28;20037;-53
2022/09/30 07:44:43;;;;;;;32.75;25.35;;;;;;;8.22;100.00;100906.03;5034057;28;20492;-56
2022/09/30 07:47:10;;;;;;;30.80;24.25;;;;;;;8.36;100.00;100919.94;5034206;28;20041;-58
2022/09/30 07:49:35;;;;;;;30.90;22.98;;;;;;;8.37;100.00;100916.44;5034309;28;20100;-55
2022/09/30 07:52:01;;;;;;;32.13;25.05;;;;;;;8.44;100.00;100914.72;5034102;28;20052;-56
2022/09/30 07:54:30;;;;;;;34.10;25.55;;;;;;;8.54;100.00;100915.53;5034198;28;20069;-55
2022/09/30 07:56:56;;;;;;;36.20;24.95;;;;;;;8.70;100.00;100910.22;5034702;28;20033;-58
2022/09/30 07:59:22;;;;;;;33.17;23.92;;;;;;;8.88;100.00;100913.63;5034290;28;20048;-56
2022/09/30 08:01:47;;;;;;;32.42;23.50;;;;;;;9.06;100.00;100906.56;5034513;28;20033;-52
2022/09/30 08:04:14;;;;;;;33.35;24.20;;;;;;;9.08;100.00;100922.22;5034215;28;20041;-54
2022/09/30 08:06:44;;;;;;;31.95;25.10;;;;;;;9.05;100.00;100909.16;5034490;28;20033;-54
2022/09/30 08:09:10;;;;;;;32.60;24.98;;;;;;;9.04;100.00;100921.34;5034016;28;20041;-52
2022/09/30 08:11:36;;;;;;;34.50;25.30;;;;;;;9.08;100.00;100910.03;5034524;28;20040;-52
2022/09/30 08:14:02;;;;;;;37.35;25.50;;;;;;;9.19;100.00;100904.72;5034159;28;20025;-55
2022/09/30 08:16:28;;;;;;;34.40;25.30;;;;;;;9.35;100.00;100918.56;5034411;28;20037;-54
2022/09/30 08:19:02;;;;;;;34.22;25.55;;;;;;;9.53;100.00;100909.69;5033823;28;20044;-52
2022/09/30 08:21:28;;;;;;;33.63;24.48;;;;;;;10.29;100.00;100904.63;5034069;28;20068;-54
2022/09/30 08:23:53;;;;;;;33.47;25.38;;;;;;;10.97;98.45;100915.13;5033438;28;20131;-54
2022/09/30 08:26:19;;;;;;;31.10;23.42;;;;;;;11.28;95.71;100915.53;5033683;28;20036;-55
2022/09/30 08:28:48;;;;;;;32.95;23.77;;;;;;;11.29;94.34;100919.88;5033435;28;20040;-51
2022/09/30 08:31:18;;;;;;;35.83;23.92;;;;;;;11.22;95.14;100919.13;5033944;28;20048;-55
2022/09/30 08:33:43;;;;;;;30.13;23.52;;;;;;;11.11;95.49;100915.78;5033628;28;20422;-55
2022/09/30 08:36:15;;;;;;;29.42;22.33;;;;;;;11.04;96.42;100916.78;5033555;28;20033;-55
2022/09/30 08:38:41;;;;;;;30.08;22.30;;;;;;;10.96;96.57;100918.63;5033390;28;20033;-54
2022/09/30 08:41:15;;;;;;;29.90;22.65;;;;;;;10.91;98.19;100910.81;5033795;28;20045;-53
2022/09/30 08:44:03;;;;;;;29.65;22.23;;;;;;;11.00;98.46;100909.84;5033439;28;20033;-53
2022/09/30 08:46:53;;;;;;;25.98;21.00;;;;;;;11.08;98.10;100918.47;4993852;28;20045;-56
2022/09/30 08:49:30;;;;;;;27.58;22.00;;;;;;;11.26;98.50;100917.31;5033151;28;20434;-54
2022/09/30 08:51:59;;;;;;;171.57;27.60;;;;;;;11.37;97.18;100916.28;5033052;28;20037;-55
2022/09/30 08:54:30;;;;;;;31.30;21.05;;;;;;;11.46;96.67;100921.34;5033112;28;20476;-52
2022/09/30 08:56:56;;;;;;;27.40;21.53;;;;;;;11.64;97.32;100924.56;5033238;28;20041;-55
2022/09/30 08:59:39;;;;;;;26.67;20.58;;;;;;;11.80;96.13;100923.47;5033053;28;20435;-54
2022/09/30 09:02:20;;;;;;;23.63;18.65;;;;;;;11.97;95.62;100916.16;5032993;28;20026;-55
2022/09/30 09:04:47;;;;;;;23.42;17.67;;;;;;;12.04;95.14;100923.03;5033114;28;20468;-56
2022/09/30 09:07:37;;;;;;;25.02;16.92;;;;;;;12.22;95.44;100920.97;5015173;28;20415;-55
2022/09/30 09:10:15;;;;;;;25.20;18.73;;;;;;;12.38;94.63;100904.91;5032656;28;20526;-55
2022/09/30 09:12:52;;;;;;;23.77;18.13;;;;;;;12.52;94.16;100894.97;5032890;28;20054;-55
2022/09/30 09:15:23;;;;;;;24.05;19.15;;;;;;;12.73;93.55;100909.44;5032728;28;20047;-55
2022/09/30 09:18:00;;;;;;;24.80;18.38;;;;;;;12.83;93.37;100913.56;5033039;28;20095;-55
2022/09/30 09:20:32;;;;;;;23.48;17.27;;;;;;;12.97;92.86;100909.81;5032717;28;20037;-54
2022/09/30 09:23:02;;;;;;;22.52;16.52;;;;;;;13.13;93.20;100909.41;5032628;28;20029;-55
2022/09/30 09:25:28;;;;;;;19.42;15.48;;;;;;;13.26;91.69;100912.66;5032599;28;20037;-54
2022/09/30 09:28:00;;;;;;;19.42;15.13;;;;;;;13.40;91.64;100900.03;5032608;28;20128;-55
2022/09/30 09:30:31;;;;;;;20.65;15.25;;;;;;;13.43;89.19;100910.50;5032644;28;20041;-56
2022/09/30 09:33:01;;;;;;;17.48;13.93;;;;;;;13.49;90.66;100917.38;5032542;28;20029;-54
2022/09/30 09:35:50;;;;;;;19.92;15.40;;;;;;;13.57;90.65;100912.78;5032244;28;20360;-55
2022/09/30 09:38:34;;;;;;;17.23;12.73;;;;;;;13.71;89.06;100923.81;5032530;28;20029;-55
2022/09/30 09:41:24;;;;;;;15.18;12.63;;;;;;;13.87;90.25;100932.19;5032252;28;20191;-56
2022/09/30 09:44:29;;;;;;;15.35;13.15;;;;;;;13.86;89.25;100918.16;5032335;28;20052;-56
2022/09/30 09:47:03;;;;;;;17.30;13.75;;;;;;;13.99;88.94;100913.47;5031670;28;20079;-55
2022/09/30 09:49:32;;;;;;;18.45;13.27;;;;;;;14.21;88.97;100911.97;5032097;28;20033;-55
2022/09/30 09:52:12;;;;;;;13.98;11.48;;;;;;;14.36;87.98;100917.75;5031546;28;20127;-56
2022/09/30 09:54:51;;;;;;;14.55;11.38;;;;;;;14.50;87.13;100916.47;5031689;28;20057;-56
2022/09/30 09:57:23;;;;;;;14.50;10.80;;;;;;;14.66;85.38;100905.50;5031862;28;20029;-55
2022/09/30 09:59:57;;;;;;;10.68;9.20;;;;;;;14.78;84.98;100897.22;5031952;28;20079;-57
2022/09/30 10:02:32;;;;;;;13.93;9.52;;;;;;;14.78;83.91;100899.84;5031884;28;20033;-56
2022/09/30 10:05:02;;;;;;;14.25;10.45;;;;;;;14.89;82.77;100905.69;5032092;28;20079;-55
2022/09/30 10:07:29;;;;;;;13.25;10.43;;;;;;;14.87;81.74;100894.34;5031860;28;20432;-55
2022/09/30 10:10:16;;;;;;;12.80;10.43;;;;;;;14.90;82.80;100892.44;5031823;28;20041;-56
2022/09/30 10:12:42;;;;;;;11.73;8.95;;;;;;;14.98;80.43;100897.50;5031629;28;20470;-56
2022/09/30 10:15:22;;;;;;;11.68;9.55;;;;;;;15.08;83.60;100900.69;5031585;28;20033;-56
2022/09/30 10:17:53;;;;;;;10.27;8.30;;;;;;;15.27;82.26;100900.06;5031562;28;20346;-55
2022/09/30 10:20:35;;;;;;;9.60;7.68;;;;;;;15.40;81.27;100899.69;5031938;28;20033;-56
2022/09/30 10:23:21;;;;;;;;;;;;;;;15.39;80.63;100904.13;5031791;28;20344;-55
2022/09/30 10:25:57;;;;;;;11.38;7.32;;;;;;;15.48;80.03;100903.78;5023955;28;20091;-55
2022/09/30 10:28:28;;;;;;;9.32;7.10;;;;;;;15.64;77.27;100907.69;5031650;28;20037;-55
2022/09/30 10:30:58;;;;;;;9.82;7.20;;;;;;;15.65;75.03;100912.06;5031850;28;20051;-56
2022/09/30 10:33:28;;;;;;;8.95;7.15;;;;;;;15.69;75.20;100904.91;5031752;28;20067;-56
2022/09/30 10:36:29;;;;;;;8.23;7.07;;;;;;;15.80;74.65;100908.03;5031215;28;20110;-55
2022/09/30 10:39:02;;;;;;;8.63;6.63;;;;;;;15.91;75.81;100900.63;5018129;28;20048;-55
2022/09/30 10:41:30;;;;;;;9.80;6.82;;;;;;;16.11;74.91;100910.47;5031819;28;20037;-56
2022/09/30 10:43:59;;;;;;;8.27;6.60;;;;;;;16.24;72.70;100908.28;5031402;28;20091;-56
2022/09/30 10:46:38;;;;;;;8.65;6.93;;;;;;;16.31;70.47;100908.00;5031525;28;20040;-56
2022/09/30 10:49:10;;;;;;;7.78;5.60;;;;;;;16.36;69.85;100910.47;5031332;28;20124;-55
2022/09/30 10:51:37;;;;;;;5.53;4.85;;;;;;;16.30;69.25;100911.53;5031648;28;20127;-56
2022/09/30 10:54:04;;;;;;;6.68;4.80;;;;;;;16.43;68.43;100905.84;5031071;28;20491;-55
2022/09/30 10:56:43;;;;;;;5.60;4.72;;;;;;;16.55;68.70;100914.16;5031482;28;20080;-56
2022/09/30 10:59:24;;;;;;;7.15;4.40;;;;;;;16.68;69.69;100912.81;5033977;28;20025;-55
2022/09/30 11:01:58;;;;;;;5.30;4.00;;;;;;;16.88;68.29;100901.50;5035216;28;20417;-56
2022/09/30 11:04:36;;;;;;;5.35;3.35;;;;;;;16.80;65.57;100903.56;5035310;28;20033;-54
2022/09/30 11:07:14;;;;;;;4.30;3.33;;;;;;;16.76;65.61;100901.97;5035509;28;20102;-56
2022/09/30 11:09:49;;;;;;;3.28;2.97;;;;;;;16.78;64.39;100894.00;5035264;28;20033;-57
2022/09/30 11:12:34;;;;;;;3.92;2.58;;;;;;;16.58;65.80;100865.66;5035323;28;20116;-56
2022/09/30 11:15:12;;;;;;;2.72;2.28;;;;;;;16.77;63.90;100897.56;5035142;28;20108;-55
2022/09/30 11:17:59;;;;;;;4.35;2.95;;;;;;;16.76;64.33;100890.53;5035088;28;20056;-55
2022/09/30 11:20:31;;;;;;;5.30;2.95;;;;;;;16.68;66.33;100893.47;5035225;28;20045;-57
2022/09/30 11:23:25;;;;;;;3.13;2.80;;;;;;;16.53;67.72;100894.00;5035062;28;20033;-55
2022/09/30 11:26:04;;;;;;;4.53;2.90;;;;;;;16.58;66.43;100892.06;5028875;28;20448;-55
2022/09/30 11:29:02;;;;;;;4.00;3.20;;;;;;;16.76;69.24;100896.69;5034812;28;20037;-55
2022/09/30 11:31:30;;;;;;;3.65;2.85;;;;;;;16.87;64.29;100891.84;5034901;28;20025;-56
2022/09/30 11:34:11;;;;;;;4.18;3.75;;;;;;;16.96;64.63;100894.16;5034442;28;20095;-56